sensor_id;sensor_type;location;lat;lon;timestamp;P1;durP1;ratioP1;P2;durP2;ratioP2
29242;SDS011;21110;48.036;15.780;2023-01-23T00:01:10;2.80;;;2.50;;
29242;SDS011;21110;48.036;15.780;2023-01-23T00:03:38;3.70;;;2.40;;
29242;SDS011;21110;48.036;15.780;2023-01-23T00:06:05;4.53;;;2.40;;
29242;SDS011;21110;48.036;15.780;2023-01-23T00:08:35;4.10;;;2.65;;
29242;SDS011;21110;48.036;15.780;2023-01-23T00:11:04;2.40;;;2.20;;
29242;SDS011;21110;48.036;15.780;2023-01-23T00:15:58;3.63;;;2.30;;
29242;SDS011;21110;48.036;15.780;2023-01-23T00:18:27;2.50;;;2.30;;
29242;SDS011;21110;48.036;15.780;2023-01-23T00:20:53;3.15;;;2.20;;
29242;SDS011;21110;48.036;15.780;2023-01-23T00:23:18;3.10;;;2.20;;
29242;SDS011;21110;48.036;15.780;2023-01-23T00:25:44;2.97;;;2.38;;
29242;SDS011;21110;48.036;15.780;2023-01-23T00:28:09;4.35;;;2.30;;
29242;SDS011;21110;48.036;15.780;2023-01-23T00:30:35;5.10;;;2.15;;
29242;SDS011;21110;48.036;15.780;2023-01-23T00:33:01;3.97;;;2.20;;
29242;SDS011;21110;48.036;15.780;2023-01-23T00:35:26;3.55;;;2.30;;
29242;SDS011;21110;48.036;15.780;2023-01-23T00:37:52;4.10;;;2.10;;
29242;SDS011;21110;48.036;15.780;2023-01-23T00:40:18;4.03;;;2.40;;
29242;SDS011;21110;48.036;15.780;2023-01-23T00:42:43;3.75;;;2.28;;
29242;SDS011;21110;48.036;15.780;2023-01-23T00:45:09;2.45;;;2.25;;
29242;SDS011;21110;48.036;15.780;2023-01-23T00:47:35;3.88;;;2.40;;
29242;SDS011;21110;48.036;15.780;2023-01-23T00:50:01;2.15;;;2.00;;
29242;SDS011;21110;48.036;15.780;2023-01-23T00:52:26;2.30;;;2.10;;
29242;SDS011;21110;48.036;15.780;2023-01-23T00:54:53;2.40;;;2.20;;
29242;SDS011;21110;48.036;15.780;2023-01-23T00:57:18;4.40;;;2.13;;
29242;SDS011;21110;48.036;15.780;2023-01-23T00:59:44;2.38;;;2.20;;
29242;SDS011;21110;48.036;15.780;2023-01-23T01:02:10;2.38;;;2.17;;
29242;SDS011;21110;48.036;15.780;2023-01-23T01:04:35;2.42;;;2.00;;
29242;SDS011;21110;48.036;15.780;2023-01-23T01:07:01;4.40;;;2.00;;
29242;SDS011;21110;48.036;15.780;2023-01-23T01:09:27;2.13;;;1.80;;
29242;SDS011;21110;48.036;15.780;2023-01-23T01:11:52;2.47;;;2.28;;
29242;SDS011;21110;48.036;15.780;2023-01-23T01:14:18;2.40;;;2.20;;
29242;SDS011;21110;48.036;15.780;2023-01-23T01:16:44;2.25;;;2.05;;
29242;SDS011;21110;48.036;15.780;2023-01-23T01:19:15;5.20;;;2.00;;
29242;SDS011;21110;48.036;15.780;2023-01-23T01:21:42;4.53;;;2.13;;
29242;SDS011;21110;48.036;15.780;2023-01-23T01:24:08;5.47;;;2.00;;
29242;SDS011;21110;48.036;15.780;2023-01-23T01:26:34;4.82;;;2.00;;
29242;SDS011;21110;48.036;15.780;2023-01-23T01:28:59;2.90;;;1.88;;
29242;SDS011;21110;48.036;15.780;2023-01-23T01:31:25;3.38;;;2.05;;
29242;SDS011;21110;48.036;15.780;2023-01-23T01:33:51;3.55;;;1.98;;
29242;SDS011;21110;48.036;15.780;2023-01-23T01:36:17;4.70;;;2.10;;
29242;SDS011;21110;48.036;15.780;2023-01-23T01:38:45;2.10;;;1.88;;
29242;SDS011;21110;48.036;15.780;2023-01-23T01:41:11;5.18;;;2.00;;
29242;SDS011;21110;48.036;15.780;2023-01-23T01:43:38;4.45;;;2.10;;
29242;SDS011;21110;48.036;15.780;2023-01-23T01:57:07;2.20;;;2.00;;
29242;SDS011;21110;48.036;15.780;2023-01-23T02:02:24;2.42;;;1.92;;
29242;SDS011;21110;48.036;15.780;2023-01-23T02:04:54;2.00;;;1.90;;
29242;SDS011;21110;48.036;15.780;2023-01-23T02:07:36;2.40;;;2.00;;
29242;SDS011;21110;48.036;15.780;2023-01-23T02:10:08;2.45;;;2.03;;
29242;SDS011;21110;48.036;15.780;2023-01-23T02:12:35;1.83;;;1.50;;
29242;SDS011;21110;48.036;15.780;2023-01-23T02:15:03;1.92;;;1.83;;
29242;SDS011;21110;48.036;15.780;2023-01-23T02:17:30;1.77;;;1.67;;
29242;SDS011;21110;48.036;15.780;2023-01-23T02:20:00;1.88;;;1.77;;
29242;SDS011;21110;48.036;15.780;2023-01-23T02:25:12;3.03;;;1.92;;
29242;SDS011;21110;48.036;15.780;2023-01-23T02:27:57;4.50;;;1.77;;
29242;SDS011;21110;48.036;15.780;2023-01-23T02:30:23;3.55;;;1.80;;
29242;SDS011;21110;48.036;15.780;2023-01-23T02:32:49;4.22;;;1.80;;
29242;SDS011;21110;48.036;15.780;2023-01-23T02:35:19;1.70;;;1.60;;
29242;SDS011;21110;48.036;15.780;2023-01-23T02:37:50;2.35;;;1.73;;
29242;SDS011;21110;48.036;15.780;2023-01-23T02:40:18;6.80;;;1.90;;
29242;SDS011;21110;48.036;15.780;2023-01-23T02:42:46;2.00;;;1.80;;
29242;SDS011;21110;48.036;15.780;2023-01-23T02:45:14;3.30;;;1.70;;
29242;SDS011;21110;48.036;15.780;2023-01-23T02:47:40;3.65;;;1.80;;
29242;SDS011;21110;48.036;15.780;2023-01-23T02:50:05;1.88;;;1.67;;
29242;SDS011;21110;48.036;15.780;2023-01-23T02:52:31;3.95;;;1.70;;
29242;SDS011;21110;48.036;15.780;2023-01-23T02:54:58;1.90;;;1.80;;
29242;SDS011;21110;48.036;15.780;2023-01-23T02:57:23;2.05;;;1.90;;
29242;SDS011;21110;48.036;15.780;2023-01-23T02:59:49;2.25;;;1.80;;
29242;SDS011;21110;48.036;15.780;2023-01-23T03:02:33;3.33;;;1.92;;
29242;SDS011;21110;48.036;15.780;2023-01-23T03:04:59;1.80;;;1.70;;
29242;SDS011;21110;48.036;15.780;2023-01-23T03:07:24;1.80;;;1.70;;
29242;SDS011;21110;48.036;15.780;2023-01-23T03:09:50;5.57;;;1.92;;
29242;SDS011;21110;48.036;15.780;2023-01-23T03:12:16;3.00;;;1.95;;
29242;SDS011;21110;48.036;15.780;2023-01-23T03:14:42;5.10;;;1.90;;
29242;SDS011;21110;48.036;15.780;2023-01-23T03:17:07;5.15;;;1.80;;
29242;SDS011;21110;48.036;15.780;2023-01-23T03:19:35;3.53;;;1.88;;
29242;SDS011;21110;48.036;15.780;2023-01-23T03:22:00;7.28;;;1.65;;
29242;SDS011;21110;48.036;15.780;2023-01-23T03:24:26;21.23;;;2.10;;
29242;SDS011;21110;48.036;15.780;2023-01-23T03:26:52;14.15;;;1.90;;
29242;SDS011;21110;48.036;15.780;2023-01-23T03:29:19;9.02;;;2.05;;
29242;SDS011;21110;48.036;15.780;2023-01-23T03:32:05;9.50;;;2.00;;
29242;SDS011;21110;48.036;15.780;2023-01-23T03:34:32;7.63;;;1.80;;
29242;SDS011;21110;48.036;15.780;2023-01-23T03:36:58;6.18;;;1.80;;
29242;SDS011;21110;48.036;15.780;2023-01-23T03:39:25;6.35;;;1.90;;
29242;SDS011;21110;48.036;15.780;2023-01-23T03:42:09;7.03;;;1.85;;
29242;SDS011;21110;48.036;15.780;2023-01-23T03:44:35;7.50;;;1.80;;
29242;SDS011;21110;48.036;15.780;2023-01-23T03:47:01;7.70;;;1.67;;
29242;SDS011;21110;48.036;15.780;2023-01-23T03:49:27;5.45;;;1.90;;
29242;SDS011;21110;48.036;15.780;2023-01-23T03:51:52;2.08;;;1.60;;
29242;SDS011;21110;48.036;15.780;2023-01-23T03:54:18;7.32;;;1.88;;
29242;SDS011;21110;48.036;15.780;2023-01-23T03:56:44;2.65;;;1.60;;
29242;SDS011;21110;48.036;15.780;2023-01-23T03:59:09;4.40;;;1.90;;
29242;SDS011;21110;48.036;15.780;2023-01-23T04:01:35;7.60;;;1.80;;
29242;SDS011;21110;48.036;15.780;2023-01-23T04:04:01;3.22;;;1.73;;
29242;SDS011;21110;48.036;15.780;2023-01-23T04:06:27;3.08;;;1.90;;
29242;SDS011;21110;48.036;15.780;2023-01-23T04:08:53;3.83;;;1.95;;
29242;SDS011;21110;48.036;15.780;2023-01-23T04:11:21;4.15;;;1.95;;
29242;SDS011;21110;48.036;15.780;2023-01-23T04:13:46;2.03;;;1.85;;
29242;SDS011;21110;48.036;15.780;2023-01-23T04:16:12;4.85;;;1.90;;
29242;SDS011;21110;48.036;15.780;2023-01-23T04:18:38;5.38;;;1.80;;
29242;SDS011;21110;48.036;15.780;2023-01-23T04:21:04;2.08;;;1.80;;
29242;SDS011;21110;48.036;15.780;2023-01-23T04:23:30;1.92;;;1.77;;
29242;SDS011;21110;48.036;15.780;2023-01-23T04:25:56;1.90;;;1.80;;
29242;SDS011;21110;48.036;15.780;2023-01-23T04:28:21;2.35;;;1.77;;
29242;SDS011;21110;48.036;15.780;2023-01-23T04:30:48;4.25;;;2.00;;
29242;SDS011;21110;48.036;15.780;2023-01-23T04:33:15;1.73;;;1.63;;
29242;SDS011;21110;48.036;15.780;2023-01-23T04:35:48;5.93;;;1.80;;
29242;SDS011;21110;48.036;15.780;2023-01-23T04:38:25;1.88;;;1.67;;
29242;SDS011;21110;48.036;15.780;2023-01-23T04:40:55;2.85;;;1.80;;
29242;SDS011;21110;48.036;15.780;2023-01-23T04:43:21;1.88;;;1.77;;
29242;SDS011;21110;48.036;15.780;2023-01-23T04:45:48;17.48;;;2.35;;
29242;SDS011;21110;48.036;15.780;2023-01-23T04:48:15;10.43;;;2.17;;
29242;SDS011;21110;48.036;15.780;2023-01-23T04:50:41;3.08;;;2.20;;
29242;SDS011;21110;48.036;15.780;2023-01-23T04:53:06;7.30;;;2.30;;
29242;SDS011;21110;48.036;15.780;2023-01-23T04:55:32;9.63;;;2.30;;
29242;SDS011;21110;48.036;15.780;2023-01-23T04:57:58;3.83;;;2.20;;
29242;SDS011;21110;48.036;15.780;2023-01-23T05:00:24;3.55;;;2.35;;
29242;SDS011;21110;48.036;15.780;2023-01-23T05:02:50;4.47;;;2.30;;
29242;SDS011;21110;48.036;15.780;2023-01-23T05:05:16;38.10;;;3.53;;
29242;SDS011;21110;48.036;15.780;2023-01-23T05:07:48;30.17;;;3.28;;
29242;SDS011;21110;48.036;15.780;2023-01-23T05:10:14;18.63;;;3.03;;
29242;SDS011;21110;48.036;15.780;2023-01-23T05:12:40;21.02;;;2.90;;
29242;SDS011;21110;48.036;15.780;2023-01-23T05:15:06;18.83;;;2.80;;
29242;SDS011;21110;48.036;15.780;2023-01-23T05:17:33;16.90;;;2.97;;
29242;SDS011;21110;48.036;15.780;2023-01-23T05:19:59;11.70;;;2.90;;
29242;SDS011;21110;48.036;15.780;2023-01-23T05:22:24;18.98;;;2.85;;
29242;SDS011;21110;48.036;15.780;2023-01-23T05:24:50;9.65;;;2.70;;
29242;SDS011;21110;48.036;15.780;2023-01-23T05:27:16;14.43;;;2.70;;
29242;SDS011;21110;48.036;15.780;2023-01-23T05:29:44;8.35;;;2.88;;
29242;SDS011;21110;48.036;15.780;2023-01-23T05:32:10;10.35;;;2.83;;
29242;SDS011;21110;48.036;15.780;2023-01-23T05:34:36;8.35;;;2.70;;
29242;SDS011;21110;48.036;15.780;2023-01-23T05:37:02;5.15;;;2.53;;
29242;SDS011;21110;48.036;15.780;2023-01-23T05:39:31;11.82;;;3.10;;
29242;SDS011;21110;48.036;15.780;2023-01-23T05:41:57;10.05;;;2.80;;
29242;SDS011;21110;48.036;15.780;2023-01-23T05:44:23;8.60;;;2.67;;
29242;SDS011;21110;48.036;15.780;2023-01-23T05:46:48;9.68;;;2.80;;
29242;SDS011;21110;48.036;15.780;2023-01-23T05:49:14;4.72;;;2.72;;
29242;SDS011;21110;48.036;15.780;2023-01-23T05:51:40;7.75;;;2.90;;
29242;SDS011;21110;48.036;15.780;2023-01-23T05:54:05;5.65;;;2.40;;
29242;SDS011;21110;48.036;15.780;2023-01-23T05:56:31;5.63;;;2.72;;
29242;SDS011;21110;48.036;15.780;2023-01-23T05:58:57;6.03;;;2.40;;
29242;SDS011;21110;48.036;15.780;2023-01-23T06:01:22;4.15;;;2.60;;
29242;SDS011;21110;48.036;15.780;2023-01-23T06:03:49;8.02;;;2.33;;
29242;SDS011;21110;48.036;15.780;2023-01-23T06:06:14;4.75;;;2.70;;
29242;SDS011;21110;48.036;15.780;2023-01-23T06:08:40;4.32;;;2.55;;
29242;SDS011;21110;48.036;15.780;2023-01-23T06:11:06;5.65;;;2.65;;
29242;SDS011;21110;48.036;15.780;2023-01-23T06:13:31;6.50;;;2.70;;
29242;SDS011;21110;48.036;15.780;2023-01-23T06:15:57;4.15;;;2.63;;
29242;SDS011;21110;48.036;15.780;2023-01-23T06:18:23;7.63;;;2.38;;
29242;SDS011;21110;48.036;15.780;2023-01-23T06:20:49;3.75;;;2.60;;
29242;SDS011;21110;48.036;15.780;2023-01-23T06:23:15;3.92;;;2.40;;
29242;SDS011;21110;48.036;15.780;2023-01-23T06:25:40;2.83;;;2.55;;
29242;SDS011;21110;48.036;15.780;2023-01-23T06:28:06;3.30;;;2.42;;
29242;SDS011;21110;48.036;15.780;2023-01-23T06:30:31;4.30;;;2.75;;
29242;SDS011;21110;48.036;15.780;2023-01-23T06:32:57;4.82;;;2.70;;
29242;SDS011;21110;48.036;15.780;2023-01-23T06:35:23;3.47;;;2.40;;
29242;SDS011;21110;48.036;15.780;2023-01-23T06:37:48;2.67;;;2.47;;
29242;SDS011;21110;48.036;15.780;2023-01-23T06:40:14;3.00;;;2.75;;
29242;SDS011;21110;48.036;15.780;2023-01-23T06:42:40;5.20;;;2.80;;
29242;SDS011;21110;48.036;15.780;2023-01-23T06:45:07;3.35;;;2.63;;
29242;SDS011;21110;48.036;15.780;2023-01-23T06:47:34;4.57;;;3.10;;
29242;SDS011;21110;48.036;15.780;2023-01-23T06:50:00;3.13;;;2.80;;
29242;SDS011;21110;48.036;15.780;2023-01-23T06:52:26;2.70;;;2.42;;
29242;SDS011;21110;48.036;15.780;2023-01-23T06:54:52;4.68;;;2.80;;
29242;SDS011;21110;48.036;15.780;2023-01-23T06:57:18;4.82;;;2.55;;
29242;SDS011;21110;48.036;15.780;2023-01-23T06:59:44;4.35;;;2.60;;
29242;SDS011;21110;48.036;15.780;2023-01-23T07:02:10;3.92;;;2.53;;
29242;SDS011;21110;48.036;15.780;2023-01-23T07:04:36;2.85;;;2.65;;
29242;SDS011;21110;48.036;15.780;2023-01-23T07:07:01;3.47;;;2.60;;
29242;SDS011;21110;48.036;15.780;2023-01-23T07:09:30;4.85;;;2.60;;
29242;SDS011;21110;48.036;15.780;2023-01-23T07:11:56;2.70;;;2.50;;
29242;SDS011;21110;48.036;15.780;2023-01-23T07:14:21;2.42;;;2.33;;
29242;SDS011;21110;48.036;15.780;2023-01-23T07:16:47;3.13;;;2.55;;
29242;SDS011;21110;48.036;15.780;2023-01-23T07:19:12;3.00;;;2.70;;
29242;SDS011;21110;48.036;15.780;2023-01-23T07:21:38;3.80;;;2.90;;
29242;SDS011;21110;48.036;15.780;2023-01-23T07:24:04;3.00;;;2.70;;
29242;SDS011;21110;48.036;15.780;2023-01-23T07:26:30;2.88;;;2.28;;
29242;SDS011;21110;48.036;15.780;2023-01-23T07:28:55;2.65;;;2.45;;
29242;SDS011;21110;48.036;15.780;2023-01-23T07:31:21;2.63;;;2.42;;
29242;SDS011;21110;48.036;15.780;2023-01-23T07:33:47;2.67;;;2.47;;
29242;SDS011;21110;48.036;15.780;2023-01-23T07:36:12;2.80;;;2.60;;
29242;SDS011;21110;48.036;15.780;2023-01-23T07:38:39;2.88;;;2.67;;
29242;SDS011;21110;48.036;15.780;2023-01-23T07:41:05;2.70;;;2.50;;
29242;SDS011;21110;48.036;15.780;2023-01-23T07:43:31;2.97;;;2.70;;
29242;SDS011;21110;48.036;15.780;2023-01-23T07:45:57;2.92;;;2.63;;
29242;SDS011;21110;48.036;15.780;2023-01-23T07:48:23;3.10;;;2.65;;
29242;SDS011;21110;48.036;15.780;2023-01-23T07:50:49;2.95;;;2.70;;
29242;SDS011;21110;48.036;15.780;2023-01-23T07:53:14;3.08;;;2.78;;
29242;SDS011;21110;48.036;15.780;2023-01-23T07:55:40;3.05;;;2.50;;
29242;SDS011;21110;48.036;15.780;2023-01-23T07:58:05;2.90;;;2.70;;
29242;SDS011;21110;48.036;15.780;2023-01-23T08:00:31;2.95;;;2.60;;
29242;SDS011;21110;48.036;15.780;2023-01-23T08:02:57;2.80;;;2.60;;
29242;SDS011;21110;48.036;15.780;2023-01-23T08:05:23;2.70;;;2.50;;
29242;SDS011;21110;48.036;15.780;2023-01-23T08:07:49;4.03;;;2.70;;
29242;SDS011;21110;48.036;15.780;2023-01-23T08:10:14;2.85;;;2.65;;
29242;SDS011;21110;48.036;15.780;2023-01-23T08:12:40;3.10;;;2.83;;
29242;SDS011;21110;48.036;15.780;2023-01-23T08:15:06;3.22;;;2.63;;
29242;SDS011;21110;48.036;15.780;2023-01-23T08:17:32;2.92;;;2.70;;
29242;SDS011;21110;48.036;15.780;2023-01-23T08:19:57;2.80;;;2.53;;
29242;SDS011;21110;48.036;15.780;2023-01-23T08:22:23;2.80;;;2.60;;
29242;SDS011;21110;48.036;15.780;2023-01-23T08:24:49;3.08;;;2.78;;
29242;SDS011;21110;48.036;15.780;2023-01-23T08:27:14;3.15;;;2.85;;
29242;SDS011;21110;48.036;15.780;2023-01-23T08:29:40;2.75;;;2.53;;
29242;SDS011;21110;48.036;15.780;2023-01-23T08:32:05;2.90;;;2.60;;
29242;SDS011;21110;48.036;15.780;2023-01-23T08:34:31;2.58;;;2.38;;
29242;SDS011;21110;48.036;15.780;2023-01-23T08:36:57;2.80;;;2.60;;
29242;SDS011;21110;48.036;15.780;2023-01-23T08:39:22;2.90;;;2.60;;
29242;SDS011;21110;48.036;15.780;2023-01-23T08:41:48;2.78;;;2.58;;
29242;SDS011;21110;48.036;15.780;2023-01-23T08:44:14;2.75;;;2.50;;
29242;SDS011;21110;48.036;15.780;2023-01-23T08:46:40;2.92;;;2.70;;
29242;SDS011;21110;48.036;15.780;2023-01-23T08:49:08;2.70;;;2.50;;
29242;SDS011;21110;48.036;15.780;2023-01-23T08:51:34;2.83;;;2.60;;
29242;SDS011;21110;48.036;15.780;2023-01-23T08:53:59;2.88;;;2.65;;
29242;SDS011;21110;48.036;15.780;2023-01-23T08:56:25;3.17;;;2.88;;
29242;SDS011;21110;48.036;15.780;2023-01-23T08:58:51;3.00;;;2.70;;
29242;SDS011;21110;48.036;15.780;2023-01-23T09:01:19;2.80;;;2.60;;
29242;SDS011;21110;48.036;15.780;2023-01-23T09:03:46;2.90;;;2.70;;
29242;SDS011;21110;48.036;15.780;2023-01-23T09:06:12;2.90;;;2.70;;
29242;SDS011;21110;48.036;15.780;2023-01-23T09:08:39;2.90;;;2.70;;
29242;SDS011;21110;48.036;15.780;2023-01-23T09:11:06;2.90;;;2.70;;
29242;SDS011;21110;48.036;15.780;2023-01-23T09:13:33;3.33;;;3.08;;
29242;SDS011;21110;48.036;15.780;2023-01-23T09:15:59;3.10;;;2.90;;
29242;SDS011;21110;48.036;15.780;2023-01-23T09:18:25;3.10;;;2.88;;
29242;SDS011;21110;48.036;15.780;2023-01-23T09:20:51;2.85;;;2.65;;
29242;SDS011;21110;48.036;15.780;2023-01-23T09:23:18;3.05;;;2.85;;
29242;SDS011;21110;48.036;15.780;2023-01-23T09:25:43;3.38;;;3.00;;
29242;SDS011;21110;48.036;15.780;2023-01-23T09:28:09;3.13;;;2.88;;
29242;SDS011;21110;48.036;15.780;2023-01-23T09:30:35;2.95;;;2.75;;
29242;SDS011;21110;48.036;15.780;2023-01-23T09:33:01;3.13;;;2.83;;
29242;SDS011;21110;48.036;15.780;2023-01-23T09:35:26;2.80;;;2.60;;
29242;SDS011;21110;48.036;15.780;2023-01-23T09:37:52;3.00;;;2.80;;
29242;SDS011;21110;48.036;15.780;2023-01-23T09:40:25;3.42;;;3.00;;
29242;SDS011;21110;48.036;15.780;2023-01-23T09:45:36;3.65;;;3.00;;
29242;SDS011;21110;48.036;15.780;2023-01-23T09:48:08;2.90;;;2.70;;
29242;SDS011;21110;48.036;15.780;2023-01-23T09:50:55;2.95;;;2.67;;
29242;SDS011;21110;48.036;15.780;2023-01-23T09:53:30;2.85;;;2.65;;
29242;SDS011;21110;48.036;15.780;2023-01-23T10:01:34;3.13;;;2.83;;
29242;SDS011;21110;48.036;15.780;2023-01-23T10:04:01;3.13;;;2.92;;
29242;SDS011;21110;48.036;15.780;2023-01-23T10:06:28;3.10;;;2.88;;
29242;SDS011;21110;48.036;15.780;2023-01-23T10:11:58;2.80;;;2.60;;
29242;SDS011;21110;48.036;15.780;2023-01-23T10:26:13;2.67;;;2.50;;
29242;SDS011;21110;48.036;15.780;2023-01-23T10:28:45;3.03;;;2.83;;
29242;SDS011;21110;48.036;15.780;2023-01-23T10:31:27;3.03;;;2.80;;
29242;SDS011;21110;48.036;15.780;2023-01-23T10:34:09;3.20;;;2.90;;
29242;SDS011;21110;48.036;15.780;2023-01-23T10:37:04;3.70;;;3.28;;
29242;SDS011;21110;48.036;15.780;2023-01-23T10:39:49;2.70;;;2.50;;
29242;SDS011;21110;48.036;15.780;2023-01-23T10:42:23;3.20;;;2.90;;
29242;SDS011;21110;48.036;15.780;2023-01-23T10:44:50;3.25;;;3.00;;
29242;SDS011;21110;48.036;15.780;2023-01-23T10:49:48;3.10;;;2.90;;
29242;SDS011;21110;48.036;15.780;2023-01-23T10:54:55;3.00;;;2.80;;
29242;SDS011;21110;48.036;15.780;2023-01-23T10:57:22;2.90;;;2.70;;
29242;SDS011;21110;48.036;15.780;2023-01-23T10:59:57;3.40;;;3.00;;
29242;SDS011;21110;48.036;15.780;2023-01-23T11:02:29;2.92;;;2.72;;
29242;SDS011;21110;48.036;15.780;2023-01-23T11:04:59;3.30;;;3.00;;
29242;SDS011;21110;48.036;15.780;2023-01-23T11:07:28;3.22;;;3.00;;
29242;SDS011;21110;48.036;15.780;2023-01-23T11:10:15;3.13;;;2.92;;
29242;SDS011;21110;48.036;15.780;2023-01-23T11:12:46;3.22;;;2.92;;
29242;SDS011;21110;48.036;15.780;2023-01-23T11:17:49;2.78;;;2.58;;
29242;SDS011;21110;48.036;15.780;2023-01-23T11:20:34;2.95;;;2.75;;
29242;SDS011;21110;48.036;15.780;2023-01-23T11:25:36;3.17;;;2.92;;
29242;SDS011;21110;48.036;15.780;2023-01-23T11:28:22;3.00;;;2.80;;
29242;SDS011;21110;48.036;15.780;2023-01-23T11:39:07;2.90;;;2.70;;
29242;SDS011;21110;48.036;15.780;2023-01-23T11:41:43;2.80;;;2.60;;
29242;SDS011;21110;48.036;15.780;2023-01-23T11:44:15;3.72;;;3.08;;
29242;SDS011;21110;48.036;15.780;2023-01-23T11:51:58;3.13;;;2.83;;
29242;SDS011;21110;48.036;15.780;2023-01-23T12:00:21;2.90;;;2.70;;
29242;SDS011;21110;48.036;15.780;2023-01-23T12:05:26;2.95;;;2.75;;
29242;SDS011;21110;48.036;15.780;2023-01-23T12:08:18;2.92;;;2.72;;
29242;SDS011;21110;48.036;15.780;2023-01-23T12:11:23;3.15;;;2.90;;
29242;SDS011;21110;48.036;15.780;2023-01-23T12:25:03;3.17;;;2.88;;
29242;SDS011;21110;48.036;15.780;2023-01-23T12:27:41;3.17;;;2.95;;
29242;SDS011;21110;48.036;15.780;2023-01-23T12:36:15;2.90;;;2.70;;
29242;SDS011;21110;48.036;15.780;2023-01-23T12:42:01;2.97;;;2.78;;
29242;SDS011;21110;48.036;15.780;2023-01-23T12:44:30;2.90;;;2.70;;
29242;SDS011;21110;48.036;15.780;2023-01-23T12:47:11;2.90;;;2.70;;
29242;SDS011;21110;48.036;15.780;2023-01-23T12:49:42;2.90;;;2.70;;
29242;SDS011;21110;48.036;15.780;2023-01-23T12:52:21;2.95;;;2.75;;
29242;SDS011;21110;48.036;15.780;2023-01-23T12:54:58;3.30;;;3.00;;
29242;SDS011;21110;48.036;15.780;2023-01-23T12:57:25;3.03;;;2.70;;
29242;SDS011;21110;48.036;15.780;2023-01-23T13:05:18;2.88;;;2.67;;
29242;SDS011;21110;48.036;15.780;2023-01-23T13:13:17;3.40;;;3.10;;
29242;SDS011;21110;48.036;15.780;2023-01-23T13:15:46;3.08;;;2.88;;
29242;SDS011;21110;48.036;15.780;2023-01-23T13:18:28;2.92;;;2.72;;
29242;SDS011;21110;48.036;15.780;2023-01-23T13:21:14;3.05;;;2.83;;
29242;SDS011;21110;48.036;15.780;2023-01-23T13:24:12;3.10;;;2.90;;
29242;SDS011;21110;48.036;15.780;2023-01-23T13:32:59;3.00;;;2.80;;
29242;SDS011;21110;48.036;15.780;2023-01-23T13:51:53;4.20;;;3.77;;
29242;SDS011;21110;48.036;15.780;2023-01-23T13:54:23;3.90;;;3.60;;
29242;SDS011;21110;48.036;15.780;2023-01-23T13:57:11;3.53;;;3.22;;
29242;SDS011;21110;48.036;15.780;2023-01-23T13:59:50;3.72;;;3.42;;
29242;SDS011;21110;48.036;15.780;2023-01-23T14:02:29;3.80;;;3.40;;
29242;SDS011;21110;48.036;15.780;2023-01-23T14:05:21;4.75;;;3.58;;
29242;SDS011;21110;48.036;15.780;2023-01-23T14:08:01;3.80;;;3.47;;
29242;SDS011;21110;48.036;15.780;2023-01-23T14:10:33;3.70;;;3.40;;
29242;SDS011;21110;48.036;15.780;2023-01-23T14:13:34;4.25;;;3.90;;
29242;SDS011;21110;48.036;15.780;2023-01-23T14:15:53;3.90;;;3.55;;
29242;SDS011;21110;48.036;15.780;2023-01-23T14:18:36;3.80;;;3.47;;
29242;SDS011;21110;48.036;15.780;2023-01-23T14:21:26;3.65;;;3.28;;
29242;SDS011;21110;48.036;15.780;2023-01-23T14:23:54;3.88;;;3.47;;
29242;SDS011;21110;48.036;15.780;2023-01-23T14:26:26;3.85;;;3.45;;
29242;SDS011;21110;48.036;15.780;2023-01-23T14:29:00;3.92;;;3.63;;
29242;SDS011;21110;48.036;15.780;2023-01-23T14:31:34;4.00;;;3.60;;
29242;SDS011;21110;48.036;15.780;2023-01-23T14:34:05;3.72;;;3.40;;
29242;SDS011;21110;48.036;15.780;2023-01-23T14:36:41;4.20;;;3.80;;
29242;SDS011;21110;48.036;15.780;2023-01-23T14:39:25;4.70;;;3.80;;
29242;SDS011;21110;48.036;15.780;2023-01-23T14:41:53;4.32;;;3.83;;
29242;SDS011;21110;48.036;15.780;2023-01-23T14:44:23;4.07;;;3.67;;
29242;SDS011;21110;48.036;15.780;2023-01-23T14:46:53;4.00;;;3.60;;
29242;SDS011;21110;48.036;15.780;2023-01-23T14:49:25;3.75;;;3.45;;
29242;SDS011;21110;48.036;15.780;2023-01-23T14:51:55;4.10;;;3.70;;
29242;SDS011;21110;48.036;15.780;2023-01-23T14:56:52;4.13;;;3.72;;
29242;SDS011;21110;48.036;15.780;2023-01-23T15:01:55;4.43;;;3.58;;
29242;SDS011;21110;48.036;15.780;2023-01-23T15:04:22;4.30;;;3.90;;
29242;SDS011;21110;48.036;15.780;2023-01-23T15:06:51;4.22;;;3.85;;
29242;SDS011;21110;48.036;15.780;2023-01-23T15:09:22;4.43;;;4.00;;
29242;SDS011;21110;48.036;15.780;2023-01-23T15:12:15;4.07;;;3.67;;
29242;SDS011;21110;48.036;15.780;2023-01-23T15:14:42;4.10;;;3.70;;
29242;SDS011;21110;48.036;15.780;2023-01-23T15:17:12;3.90;;;3.50;;
29242;SDS011;21110;48.036;15.780;2023-01-23T15:19:47;4.60;;;4.20;;
29242;SDS011;21110;48.036;15.780;2023-01-23T15:22:17;4.07;;;3.78;;
29242;SDS011;21110;48.036;15.780;2023-01-23T15:24:46;4.10;;;3.70;;
29242;SDS011;21110;48.036;15.780;2023-01-23T15:27:23;5.63;;;3.63;;
29242;SDS011;21110;48.036;15.780;2023-01-23T15:32:53;4.18;;;3.78;;
29242;SDS011;21110;48.036;15.780;2023-01-23T15:35:19;4.53;;;4.05;;
29242;SDS011;21110;48.036;15.780;2023-01-23T15:37:48;4.32;;;3.92;;
29242;SDS011;21110;48.036;15.780;2023-01-23T15:40:18;4.50;;;4.05;;
29242;SDS011;21110;48.036;15.780;2023-01-23T15:45:39;4.20;;;3.90;;
29242;SDS011;21110;48.036;15.780;2023-01-23T15:48:05;4.57;;;4.18;;
29242;SDS011;21110;48.036;15.780;2023-01-23T15:50:30;4.70;;;3.80;;
29242;SDS011;21110;48.036;15.780;2023-01-23T15:52:56;4.35;;;3.95;;
29242;SDS011;21110;48.036;15.780;2023-01-23T15:55:23;5.07;;;4.15;;
29242;SDS011;21110;48.036;15.780;2023-01-23T15:57:50;4.40;;;4.00;;
29242;SDS011;21110;48.036;15.780;2023-01-23T16:00:19;4.50;;;4.00;;
29242;SDS011;21110;48.036;15.780;2023-01-23T16:02:49;4.30;;;3.90;;
29242;SDS011;21110;48.036;15.780;2023-01-23T16:05:18;4.38;;;3.97;;
29242;SDS011;21110;48.036;15.780;2023-01-23T16:07:45;4.40;;;4.00;;
29242;SDS011;21110;48.036;15.780;2023-01-23T16:12:47;4.13;;;3.72;;
29242;SDS011;21110;48.036;15.780;2023-01-23T16:15:18;4.93;;;4.43;;
29242;SDS011;21110;48.036;15.780;2023-01-23T16:17:45;4.40;;;3.67;;
29242;SDS011;21110;48.036;15.780;2023-01-23T16:20:22;6.03;;;4.30;;
29242;SDS011;21110;48.036;15.780;2023-01-23T16:22:49;4.57;;;4.18;;
29242;SDS011;21110;48.036;15.780;2023-01-23T16:25:17;4.70;;;4.22;;
29242;SDS011;21110;48.036;15.780;2023-01-23T16:27:49;5.75;;;4.45;;
29242;SDS011;21110;48.036;15.780;2023-01-23T16:30:16;4.63;;;4.22;;
29242;SDS011;21110;48.036;15.780;2023-01-23T16:32:43;4.97;;;4.25;;
29242;SDS011;21110;48.036;15.780;2023-01-23T16:35:12;4.50;;;4.10;;
29242;SDS011;21110;48.036;15.780;2023-01-23T16:37:42;4.35;;;3.90;;
29242;SDS011;21110;48.036;15.780;2023-01-23T16:40:44;6.78;;;4.38;;
29242;SDS011;21110;48.036;15.780;2023-01-23T16:43:02;5.78;;;4.88;;
29242;SDS011;21110;48.036;15.780;2023-01-23T16:45:29;10.65;;;5.57;;
29242;SDS011;21110;48.036;15.780;2023-01-23T16:47:55;9.70;;;6.18;;
29242;SDS011;21110;48.036;15.780;2023-01-23T16:50:24;12.25;;;6.72;;
29242;SDS011;21110;48.036;15.780;2023-01-23T16:53:04;8.77;;;6.80;;
29242;SDS011;21110;48.036;15.780;2023-01-23T16:55:40;13.07;;;7.82;;
29242;SDS011;21110;48.036;15.780;2023-01-23T16:58:20;11.65;;;7.40;;
29242;SDS011;21110;48.036;15.780;2023-01-23T17:00:49;9.38;;;6.95;;
29242;SDS011;21110;48.036;15.780;2023-01-23T17:03:26;10.57;;;7.03;;
29242;SDS011;21110;48.036;15.780;2023-01-23T17:06:04;11.32;;;7.20;;